sensor_id;sensor_type;location;lat;lon;timestamp;pressure;altitude;pressure_sealevel;temperature;humidity
61292;BME280;47165;42.664;23.368;2023-02-08T00:00:15;96568.22;;;-4.00;58.87
61292;BME280;47165;42.664;23.368;2023-02-08T00:02:41;96581.56;;;-4.10;58.37
61292;BME280;47165;42.664;23.368;2023-02-08T00:05:06;96592.81;;;-4.02;58.24
61292;BME280;47165;42.664;23.368;2023-02-08T00:07:32;96587.56;;;-3.73;57.99
61292;BME280;47165;42.664;23.368;2023-02-08T00:09:57;96579.16;;;-3.69;58.01
61292;BME280;47165;42.664;23.368;2023-02-08T00:12:23;96589.66;;;-3.57;57.51
61292;BME280;47165;42.664;23.368;2023-02-08T00:14:48;96595.19;;;-3.75;57.05
61292;BME280;47165;42.664;23.368;2023-02-08T00:17:14;96594.16;;;-3.47;57.39
61292;BME280;47165;42.664;23.368;2023-02-08T00:19:39;96586.78;;;-3.34;56.44
61292;BME280;47165;42.664;23.368;2023-02-08T00:22:04;96595.66;;;-3.17;55.74
61292;BME280;47165;42.664;23.368;2023-02-08T00:24:30;96601.59;;;-3.18;56.03
61292;BME280;47165;42.664;23.368;2023-02-08T00:26:55;96605.81;;;-3.18;55.59
61292;BME280;47165;42.664;23.368;2023-02-08T00:29:21;96604.28;;;-3.12;55.83
61292;BME280;47165;42.664;23.368;2023-02-08T00:31:46;96609.09;;;-2.86;55.26
61292;BME280;47165;42.664;23.368;2023-02-08T00:34:11;96601.09;;;-2.60;54.87
61292;BME280;47165;42.664;23.368;2023-02-08T00:36:37;96613.13;;;-2.97;54.29
61292;BME280;47165;42.664;23.368;2023-02-08T00:39:02;96617.84;;;-3.52;56.26
61292;BME280;47165;42.664;23.368;2023-02-08T00:41:28;96607.44;;;-3.60;56.72
61292;BME280;47165;42.664;23.368;2023-02-08T00:43:53;96619.97;;;-3.33;57.12
61292;BME280;47165;42.664;23.368;2023-02-08T00:46:19;96620.66;;;-3.04;56.18
61292;BME280;47165;42.664;23.368;2023-02-08T00:48:45;96627.59;;;-3.71;56.87
61292;BME280;47165;42.664;23.368;2023-02-08T00:51:13;96619.78;;;-4.12;57.99
61292;BME280;47165;42.664;23.368;2023-02-08T00:53:42;96624.56;;;-3.91;59.24
61292;BME280;47165;42.664;23.368;2023-02-08T00:56:12;96628.16;;;-3.48;58.14
61292;BME280;47165;42.664;23.368;2023-02-08T00:58:38;96628.75;;;-3.21;56.81
61292;BME280;47165;42.664;23.368;2023-02-08T01:01:05;96630.63;;;-3.14;56.85
61292;BME280;47165;42.664;23.368;2023-02-08T01:03:35;96630.75;;;-3.08;55.97
61292;BME280;47165;42.664;23.368;2023-02-08T01:06:12;96635.41;;;-2.90;56.04
61292;BME280;47165;42.664;23.368;2023-02-08T01:08:37;96626.47;;;-2.70;55.79
61292;BME280;47165;42.664;23.368;2023-02-08T01:11:12;96632.97;;;-2.43;55.16
61292;BME280;47165;42.664;23.368;2023-02-08T01:13:38;96633.72;;;-2.90;55.24
61292;BME280;47165;42.664;23.368;2023-02-08T01:16:11;96633.97;;;-3.17;56.27
61292;BME280;47165;42.664;23.368;2023-02-08T01:18:38;96633.53;;;-3.35;57.57
61292;BME280;47165;42.664;23.368;2023-02-08T01:21:06;96636.00;;;-3.02;56.95
61292;BME280;47165;42.664;23.368;2023-02-08T01:23:32;96640.03;;;-2.74;55.86
61292;BME280;47165;42.664;23.368;2023-02-08T01:25:58;96605.50;;;-2.94;54.69
61292;BME280;47165;42.664;23.368;2023-02-08T01:28:23;96632.75;;;-3.34;56.31
61292;BME280;47165;42.664;23.368;2023-02-08T01:30:48;96620.28;;;-3.57;57.82
61292;BME280;47165;42.664;23.368;2023-02-08T01:33:14;96624.84;;;-3.44;57.68
61292;BME280;47165;42.664;23.368;2023-02-08T01:35:39;96637.22;;;-3.24;57.78
61292;BME280;47165;42.664;23.368;2023-02-08T01:38:05;96626.16;;;-3.23;57.01
61292;BME280;47165;42.664;23.368;2023-02-08T01:40:30;96632.84;;;-3.30;57.09
61292;BME280;47165;42.664;23.368;2023-02-08T01:42:55;96627.78;;;-3.28;57.77
61292;BME280;47165;42.664;23.368;2023-02-08T01:45:30;96627.75;;;-2.90;57.29
61292;BME280;47165;42.664;23.368;2023-02-08T01:48:03;96633.47;;;-2.61;56.49
61292;BME280;47165;42.664;23.368;2023-02-08T01:50:38;96623.69;;;-2.39;55.23
61292;BME280;47165;42.664;23.368;2023-02-08T01:53:04;96616.03;;;-2.38;55.20
61292;BME280;47165;42.664;23.368;2023-02-08T01:55:33;96637.34;;;-2.37;55.02
61292;BME280;47165;42.664;23.368;2023-02-08T01:58:03;96631.53;;;-2.71;56.32
61292;BME280;47165;42.664;23.368;2023-02-08T02:00:30;96633.50;;;-2.59;56.34
61292;BME280;47165;42.664;23.368;2023-02-08T02:02:56;96633.81;;;-2.44;55.62
61292;BME280;47165;42.664;23.368;2023-02-08T02:05:31;96635.03;;;-2.25;55.75
61292;BME280;47165;42.664;23.368;2023-02-08T02:07:58;96642.63;;;-2.28;54.91
61292;BME280;47165;42.664;23.368;2023-02-08T02:10:30;96639.28;;;-2.26;54.85
61292;BME280;47165;42.664;23.368;2023-02-08T02:13:05;96633.59;;;-2.11;54.76
61292;BME280;47165;42.664;23.368;2023-02-08T02:15:31;96623.66;;;-1.94;54.14
61292;BME280;47165;42.664;23.368;2023-02-08T02:17:57;96639.13;;;-1.88;54.13
61292;BME280;47165;42.664;23.368;2023-02-08T02:20:45;96645.09;;;-1.89;54.38
61292;BME280;47165;42.664;23.368;2023-02-08T02:40:11;96665.81;;;-2.20;55.01
61292;BME280;47165;42.664;23.368;2023-02-08T02:45:45;96657.78;;;-1.95;54.32
61292;BME280;47165;42.664;23.368;2023-02-08T02:48:17;96671.50;;;-1.90;55.01
61292;BME280;47165;42.664;23.368;2023-02-08T02:50:48;96666.34;;;-1.91;54.71
61292;BME280;47165;42.664;23.368;2023-02-08T02:53:25;96667.22;;;-1.92;54.93
61292;BME280;47165;42.664;23.368;2023-02-08T02:56:16;96669.84;;;-1.88;55.02
61292;BME280;47165;42.664;23.368;2023-02-08T02:58:43;96660.41;;;-1.90;55.25
61292;BME280;47165;42.664;23.368;2023-02-08T03:01:09;96676.13;;;-1.72;55.07
61292;BME280;47165;42.664;23.368;2023-02-08T03:03:34;96675.47;;;-1.60;54.97
61292;BME280;47165;42.664;23.368;2023-02-08T03:06:11;96666.72;;;-1.71;55.31
61292;BME280;47165;42.664;23.368;2023-02-08T03:11:27;96666.84;;;-1.65;55.56
61292;BME280;47165;42.664;23.368;2023-02-08T03:16:37;96677.34;;;-1.50;55.54
61292;BME280;47165;42.664;23.368;2023-02-08T03:21:49;96662.97;;;-1.42;55.26
61292;BME280;47165;42.664;23.368;2023-02-08T03:24:31;96663.88;;;-1.39;54.54
61292;BME280;47165;42.664;23.368;2023-02-08T03:27:14;96662.97;;;-1.40;54.26
61292;BME280;47165;42.664;23.368;2023-02-08T03:32:52;96662.03;;;-1.47;54.46
61292;BME280;47165;42.664;23.368;2023-02-08T03:35:37;96668.78;;;-1.52;54.76
61292;BME280;47165;42.664;23.368;2023-02-08T03:38:07;96667.03;;;-1.53;54.71
61292;BME280;47165;42.664;23.368;2023-02-08T03:40:40;96673.75;;;-1.59;55.04
61292;BME280;47165;42.664;23.368;2023-02-08T03:43:17;96674.63;;;-1.59;54.70
61292;BME280;47165;42.664;23.368;2023-02-08T03:46:12;96678.91;;;-1.58;54.45
61292;BME280;47165;42.664;23.368;2023-02-08T03:48:45;96668.56;;;-1.64;54.60
61292;BME280;47165;42.664;23.368;2023-02-08T03:51:14;96677.19;;;-1.59;55.06
61292;BME280;47165;42.664;23.368;2023-02-08T03:53:41;96675.47;;;-1.58;54.74
61292;BME280;47165;42.664;23.368;2023-02-08T03:56:15;96678.19;;;-1.51;54.26
61292;BME280;47165;42.664;23.368;2023-02-08T03:58:48;96671.25;;;-1.58;54.54
61292;BME280;47165;42.664;23.368;2023-02-08T04:01:31;96685.81;;;-1.54;54.31
61292;BME280;47165;42.664;23.368;2023-02-08T04:04:00;96680.59;;;-1.60;54.78
61292;BME280;47165;42.664;23.368;2023-02-08T04:06:26;96691.63;;;-1.64;54.77
61292;BME280;47165;42.664;23.368;2023-02-08T04:08:52;96690.72;;;-1.66;54.89
61292;BME280;47165;42.664;23.368;2023-02-08T04:11:17;96694.97;;;-1.67;54.71
61292;BME280;47165;42.664;23.368;2023-02-08T04:13:43;96705.16;;;-1.70;54.38
61292;BME280;47165;42.664;23.368;2023-02-08T04:16:10;96702.69;;;-1.65;54.73
61292;BME280;47165;42.664;23.368;2023-02-08T04:18:36;96694.97;;;-1.68;54.40
61292;BME280;47165;42.664;23.368;2023-02-08T04:21:02;96705.13;;;-1.71;54.43
61292;BME280;47165;42.664;23.368;2023-02-08T04:23:27;96697.53;;;-1.68;54.63
61292;BME280;47165;42.664;23.368;2023-02-08T04:25:53;96694.91;;;-1.71;54.09
61292;BME280;47165;42.664;23.368;2023-02-08T04:28:18;96704.25;;;-1.73;54.34
61292;BME280;47165;42.664;23.368;2023-02-08T04:30:43;96692.97;;;-1.85;54.14
61292;BME280;47165;42.664;23.368;2023-02-08T04:33:09;96694.47;;;-1.94;54.37
61292;BME280;47165;42.664;23.368;2023-02-08T04:35:37;96707.34;;;-1.90;54.85
61292;BME280;47165;42.664;23.368;2023-02-08T04:38:02;96706.66;;;-1.81;55.17
61292;BME280;47165;42.664;23.368;2023-02-08T04:40:28;96699.81;;;-1.82;54.88
61292;BME280;47165;42.664;23.368;2023-02-08T04:42:54;96697.81;;;-1.98;54.64
61292;BME280;47165;42.664;23.368;2023-02-08T04:45:19;96708.03;;;-1.98;55.27
61292;BME280;47165;42.664;23.368;2023-02-08T04:47:44;96710.03;;;-1.84;54.54
61292;BME280;47165;42.664;23.368;2023-02-08T04:50:10;96712.44;;;-1.91;54.53
61292;BME280;47165;42.664;23.368;2023-02-08T04:52:35;96717.47;;;-1.96;54.93
61292;BME280;47165;42.664;23.368;2023-02-08T04:55:01;96725.88;;;-2.03;54.70
61292;BME280;47165;42.664;23.368;2023-02-08T04:57:26;96726.78;;;-1.99;54.91
61292;BME280;47165;42.664;23.368;2023-02-08T04:59:52;96740.31;;;-2.07;54.79
61292;BME280;47165;42.664;23.368;2023-02-08T05:02:17;96750.50;;;-2.08;54.59
61292;BME280;47165;42.664;23.368;2023-02-08T05:04:42;96744.25;;;-2.23;54.88
61292;BME280;47165;42.664;23.368;2023-02-08T05:07:08;96750.25;;;-2.20;55.22
61292;BME280;47165;42.664;23.368;2023-02-08T05:09:33;96759.66;;;-2.19;55.37
61292;BME280;47165;42.664;23.368;2023-02-08T05:11:59;96763.13;;;-2.17;55.34
61292;BME280;47165;42.664;23.368;2023-02-08T05:14:24;96768.19;;;-2.19;55.64
61292;BME280;47165;42.664;23.368;2023-02-08T05:16:50;96761.34;;;-2.20;55.54
61292;BME280;47165;42.664;23.368;2023-02-08T05:19:15;96769.22;;;-2.11;55.17
61292;BME280;47165;42.664;23.368;2023-02-08T05:21:41;96770.88;;;-2.13;55.03
61292;BME280;47165;42.664;23.368;2023-02-08T05:24:06;96774.44;;;-2.06;55.69
61292;BME280;47165;42.664;23.368;2023-02-08T05:26:33;96778.66;;;-2.08;56.32
61292;BME280;47165;42.664;23.368;2023-02-08T05:28:58;96774.25;;;-2.14;55.63
61292;BME280;47165;42.664;23.368;2023-02-08T05:31:24;96776.00;;;-2.13;55.54
61292;BME280;47165;42.664;23.368;2023-02-08T05:33:51;96775.97;;;-2.14;54.96
61292;BME280;47165;42.664;23.368;2023-02-08T05:36:18;96780.91;;;-2.24;55.15
61292;BME280;47165;42.664;23.368;2023-02-08T05:38:43;96773.09;;;-2.30;55.51
61292;BME280;47165;42.664;23.368;2023-02-08T05:41:09;96780.84;;;-2.25;55.57
61292;BME280;47165;42.664;23.368;2023-02-08T05:43:35;96777.53;;;-2.21;55.27
61292;BME280;47165;42.664;23.368;2023-02-08T05:46:01;96790.41;;;-2.16;55.49
61292;BME280;47165;42.664;23.368;2023-02-08T05:48:26;96789.75;;;-2.08;54.59
61292;BME280;47165;42.664;23.368;2023-02-08T05:50:52;96792.34;;;-2.06;55.30
61292;BME280;47165;42.664;23.368;2023-02-08T05:53:18;96789.75;;;-2.08;54.92
61292;BME280;47165;42.664;23.368;2023-02-08T05:55:45;96788.44;;;-1.89;54.28
61292;BME280;47165;42.664;23.368;2023-02-08T05:58:13;96790.88;;;-1.95;54.00
61292;BME280;47165;42.664;23.368;2023-02-08T06:00:38;96794.22;;;-1.99;54.43
61292;BME280;47165;42.664;23.368;2023-02-08T06:03:04;96794.25;;;-1.96;55.15
61292;BME280;47165;42.664;23.368;2023-02-08T06:05:30;96786.75;;;-1.88;54.84
61292;BME280;47165;42.664;23.368;2023-02-08T06:07:55;96791.88;;;-1.88;55.01
61292;BME280;47165;42.664;23.368;2023-02-08T06:10:21;96788.28;;;-1.96;55.58
61292;BME280;47165;42.664;23.368;2023-02-08T06:12:46;96788.25;;;-1.98;55.54
61292;BME280;47165;42.664;23.368;2023-02-08T06:15:12;96795.75;;;-2.07;55.94
61292;BME280;47165;42.664;23.368;2023-02-08T06:17:37;96788.84;;;-2.10;56.39
61292;BME280;47165;42.664;23.368;2023-02-08T06:20:03;96792.50;;;-1.98;56.77
61292;BME280;47165;42.664;23.368;2023-02-08T06:22:28;96792.59;;;-1.94;56.69
61292;BME280;47165;42.664;23.368;2023-02-08T06:24:54;96791.13;;;-1.83;56.85
61292;BME280;47165;42.664;23.368;2023-02-08T06:27:19;96792.13;;;-1.76;55.92
61292;BME280;47165;42.664;23.368;2023-02-08T06:29:45;96801.50;;;-1.75;56.03
61292;BME280;47165;42.664;23.368;2023-02-08T06:32:11;96804.06;;;-1.76;55.55
61292;BME280;47165;42.664;23.368;2023-02-08T06:34:36;96811.66;;;-1.79;55.95
61292;BME280;47165;42.664;23.368;2023-02-08T06:37:01;96808.28;;;-1.78;55.63
61292;BME280;47165;42.664;23.368;2023-02-08T06:39:29;96807.38;;;-1.80;55.50
61292;BME280;47165;42.664;23.368;2023-02-08T06:41:55;96813.53;;;-1.71;55.59
61292;BME280;47165;42.664;23.368;2023-02-08T06:44:20;96806.75;;;-1.69;55.45
61292;BME280;47165;42.664;23.368;2023-02-08T06:46:46;96811.09;;;-1.66;55.33
61292;BME280;47165;42.664;23.368;2023-02-08T06:49:11;96810.28;;;-1.64;55.02
61292;BME280;47165;42.664;23.368;2023-02-08T06:51:37;96815.44;;;-1.62;55.40
61292;BME280;47165;42.664;23.368;2023-02-08T06:54:02;96814.59;;;-1.61;55.15
61292;BME280;47165;42.664;23.368;2023-02-08T06:56:28;96823.16;;;-1.59;55.31
61292;BME280;47165;42.664;23.368;2023-02-08T06:58:55;96824.09;;;-1.55;55.31
61292;BME280;47165;42.664;23.368;2023-02-08T07:01:20;96826.50;;;-1.63;55.07
61292;BME280;47165;42.664;23.368;2023-02-08T07:03:46;96824.78;;;-1.64;54.89
61292;BME280;47165;42.664;23.368;2023-02-08T07:06:17;96822.22;;;-1.63;54.71
61292;BME280;47165;42.664;23.368;2023-02-08T07:08:43;96822.97;;;-1.70;54.19
61292;BME280;47165;42.664;23.368;2023-02-08T07:11:10;96799.75;;;-1.77;53.94
61292;BME280;47165;42.664;23.368;2023-02-08T07:13:36;96806.75;;;-1.70;53.71
61292;BME280;47165;42.664;23.368;2023-02-08T07:16:06;96834.19;;;-1.63;53.64
61292;BME280;47165;42.664;23.368;2023-02-08T07:18:32;96840.06;;;-1.67;54.17
61292;BME280;47165;42.664;23.368;2023-02-08T07:20:58;96850.41;;;-1.63;54.02
61292;BME280;47165;42.664;23.368;2023-02-08T07:23:24;96850.41;;;-1.63;53.62
61292;BME280;47165;42.664;23.368;2023-02-08T07:26:18;96848.09;;;-1.52;53.71
61292;BME280;47165;42.664;23.368;2023-02-08T07:28:44;96844.38;;;-1.66;53.67
61292;BME280;47165;42.664;23.368;2023-02-08T07:31:11;96856.09;;;-1.77;54.59
61292;BME280;47165;42.664;23.368;2023-02-08T07:33:37;96855.44;;;-1.67;54.68
61292;BME280;47165;42.664;23.368;2023-02-08T07:36:02;96849.75;;;-1.54;54.34
61292;BME280;47165;42.664;23.368;2023-02-08T07:38:30;96858.41;;;-1.47;54.64
61292;BME280;47165;42.664;23.368;2023-02-08T07:41:22;96856.13;;;-1.33;54.72
61292;BME280;47165;42.664;23.368;2023-02-08T07:43:47;96857.03;;;-1.31;53.32
61292;BME280;47165;42.664;23.368;2023-02-08T07:46:18;96856.41;;;-1.18;53.51
61292;BME280;47165;42.664;23.368;2023-02-08T07:48:44;96857.25;;;-1.19;53.19
61292;BME280;47165;42.664;23.368;2023-02-08T07:51:10;96844.38;;;-1.22;53.03
61292;BME280;47165;42.664;23.368;2023-02-08T07:53:36;96837.50;;;-1.25;52.72
61292;BME280;47165;42.664;23.368;2023-02-08T07:56:02;96854.63;;;-1.22;52.40
61292;BME280;47165;42.664;23.368;2023-02-08T07:58:28;96855.47;;;-1.23;51.99
61292;BME280;47165;42.664;23.368;2023-02-08T08:00:53;96850.28;;;-1.26;51.38
61292;BME280;47165;42.664;23.368;2023-02-08T08:03:19;96853.78;;;-1.21;51.73
61292;BME280;47165;42.664;23.368;2023-02-08T08:05:44;96852.84;;;-1.26;51.86
61292;BME280;47165;42.664;23.368;2023-02-08T08:08:11;96846.88;;;-1.25;51.71
61292;BME280;47165;42.664;23.368;2023-02-08T08:10:36;96843.25;;;-1.36;51.37
61292;BME280;47165;42.664;23.368;2023-02-08T08:13:02;96845.97;;;-1.29;51.59
61292;BME280;47165;42.664;23.368;2023-02-08T08:15:28;96836.75;;;-1.19;51.11
61292;BME280;47165;42.664;23.368;2023-02-08T08:17:54;96835.22;;;-1.08;50.87
61292;BME280;47165;42.664;23.368;2023-02-08T08:20:19;96831.56;;;-1.22;50.41
61292;BME280;47165;42.664;23.368;2023-02-08T08:22:45;96831.66;;;-1.16;51.03
61292;BME280;47165;42.664;23.368;2023-02-08T08:25:11;96826.53;;;-1.16;50.93
61292;BME280;47165;42.664;23.368;2023-02-08T08:27:37;96846.38;;;-1.06;49.96
61292;BME280;47165;42.664;23.368;2023-02-08T08:30:05;96844.13;;;-0.87;50.28
61292;BME280;47165;42.664;23.368;2023-02-08T08:32:30;96842.47;;;-0.85;50.00
61292;BME280;47165;42.664;23.368;2023-02-08T08:34:56;96842.56;;;-0.79;50.05
61292;BME280;47165;42.664;23.368;2023-02-08T08:37:21;96848.78;;;-0.65;49.98
61292;BME280;47165;42.664;23.368;2023-02-08T08:39:47;96846.41;;;-0.52;49.49
61292;BME280;47165;42.664;23.368;2023-02-08T08:42:12;96843.06;;;-0.48;49.62
61292;BME280;47165;42.664;23.368;2023-02-08T08:44:37;96844.09;;;-0.38;49.49
61292;BME280;47165;42.664;23.368;2023-02-08T08:47:04;96850.31;;;-0.23;48.67
61292;BME280;47165;42.664;23.368;2023-02-08T08:49:29;96857.22;;;-0.18;49.12
61292;BME280;47165;42.664;23.368;2023-02-08T08:51:55;96858.28;;;-0.04;48.49
61292;BME280;47165;42.664;23.368;2023-02-08T08:54:21;96846.25;;;-0.08;48.22
61292;BME280;47165;42.664;23.368;2023-02-08T08:56:47;96861.78;;;0.01;48.91
61292;BME280;47165;42.664;23.368;2023-02-08T08:59:12;96858.50;;;0.11;48.46
61292;BME280;47165;42.664;23.368;2023-02-08T09:01:38;96871.38;;;0.14;47.72
61292;BME280;47165;42.664;23.368;2023-02-08T09:04:06;96872.19;;;0.12;47.68
61292;BME280;47165;42.664;23.368;2023-02-08T09:06:32;96869.72;;;0.19;46.89
61292;BME280;47165;42.664;23.368;2023-02-08T09:08:57;96866.88;;;-0.01;47.20
61292;BME280;47165;42.664;23.368;2023-02-08T09:11:22;96854.91;;;-0.02;45.81
61292;BME280;47165;42.664;23.368;2023-02-08T09:13:48;96877.19;;;0.01;45.40
61292;BME280;47165;42.664;23.368;2023-02-08T09:16:18;96878.13;;;0.06;45.17
61292;BME280;47165;42.664;23.368;2023-02-08T09:18:44;96879.13;;;0.17;45.19
61292;BME280;47165;42.664;23.368;2023-02-08T09:21:13;96875.66;;;0.15;44.72
61292;BME280;47165;42.664;23.368;2023-02-08T09:23:39;96873.72;;;-0.01;44.94
61292;BME280;47165;42.664;23.368;2023-02-08T09:26:07;96879.50;;;-0.16;46.10
61292;BME280;47165;42.664;23.368;2023-02-08T09:28:33;96872.81;;;-0.05;46.37
61292;BME280;47165;42.664;23.368;2023-02-08T09:30:59;96874.88;;;0.19;46.93
61292;BME280;47165;42.664;23.368;2023-02-08T09:33:30;96867.41;;;0.38;45.59
61292;BME280;47165;42.664;23.368;2023-02-08T09:35:56;96873.72;;;0.62;45.86
61292;BME280;47165;42.664;23.368;2023-02-08T09:38:21;96879.03;;;0.77;45.18
61292;BME280;47165;42.664;23.368;2023-02-08T09:41:06;96869.84;;;0.99;45.25
61292;BME280;47165;42.664;23.368;2023-02-08T09:46:19;96862.88;;;0.89;45.05
61292;BME280;47165;42.664;23.368;2023-02-08T09:48:48;96857.84;;;0.99;44.70
61292;BME280;47165;42.664;23.368;2023-02-08T09:51:37;96864.03;;;1.17;43.50
61292;BME280;47165;42.664;23.368;2023-02-08T09:54:21;96857.00;;;1.00;44.32
61292;BME280;47165;42.664;23.368;2023-02-08T09:56:48;96864.75;;;1.04;44.46
61292;BME280;47165;42.664;23.368;2023-02-08T09:59:22;96865.63;;;1.06;43.45
61292;BME280;47165;42.664;23.368;2023-02-08T10:01:55;96869.47;;;0.67;43.67
61292;BME280;47165;42.664;23.368;2023-02-08T10:05:29;96864.81;;;0.35;45.45
61292;BME280;47165;42.664;23.368;2023-02-08T10:07:27;96865.00;;;0.50;44.58
61292;BME280;47165;42.664;23.368;2023-02-08T10:09:56;96853.19;;;0.66;44.32
61292;BME280;47165;42.664;23.368;2023-02-08T10:25:26;96845.50;;;0.69;43.09
61292;BME280;47165;42.664;23.368;2023-02-08T10:33:01;96850.44;;;0.49;43.50
61292;BME280;47165;42.664;23.368;2023-02-08T10:35:31;96851.19;;;0.42;43.76
61292;BME280;47165;42.664;23.368;2023-02-08T10:38:09;96844.41;;;0.47;43.32
61292;BME280;47165;42.664;23.368;2023-02-08T10:40:42;96842.06;;;-0.02;44.13
61292;BME280;47165;42.664;23.368;2023-02-08T10:45:55;96842.72;;;0.49;43.27
61292;BME280;47165;42.664;23.368;2023-02-08T10:48:45;96845.50;;;0.69;43.97
61292;BME280;47165;42.664;23.368;2023-02-08T10:51:15;96849.47;;;1.19;44.19
61292;BME280;47165;42.664;23.368;2023-02-08T10:53:42;96857.31;;;1.31;41.75
61292;BME280;47165;42.664;23.368;2023-02-08T10:56:21;96850.66;;;1.58;41.48
61292;BME280;47165;42.664;23.368;2023-02-08T10:58:50;96847.25;;;1.62;41.12
61292;BME280;47165;42.664;23.368;2023-02-08T11:01:16;96841.28;;;1.65;41.44
61292;BME280;47165;42.664;23.368;2023-02-08T11:04:03;96839.34;;;1.39;40.02
61292;BME280;47165;42.664;23.368;2023-02-08T11:06:29;96862.38;;;1.25;41.82
61292;BME280;47165;42.664;23.368;2023-02-08T11:08:55;96843.78;;;1.54;41.74
61292;BME280;47165;42.664;23.368;2023-02-08T11:11:21;96855.03;;;1.68;41.12
61292;BME280;47165;42.664;23.368;2023-02-08T11:13:47;96860.03;;;1.51;43.08
61292;BME280;47165;42.664;23.368;2023-02-08T11:16:24;96851.53;;;1.58;43.68
61292;BME280;47165;42.664;23.368;2023-02-08T11:19:00;96860.28;;;1.84;42.80
61292;BME280;47165;42.664;23.368;2023-02-08T11:23:59;96859.16;;;1.49;43.69
61292;BME280;47165;42.664;23.368;2023-02-08T11:26:38;96856.66;;;1.57;44.15
61292;BME280;47165;42.664;23.368;2023-02-08T11:29:10;96856.56;;;0.62;45.07
61292;BME280;47165;42.664;23.368;2023-02-08T11:31:37;96865.22;;;0.69;45.52
61292;BME280;47165;42.664;23.368;2023-02-08T11:34:09;96866.56;;;0.39;45.27
61292;BME280;47165;42.664;23.368;2023-02-08T11:36:41;96853.81;;;0.47;45.92
61292;BME280;47165;42.664;23.368;2023-02-08T11:39:19;96860.38;;;0.23;46.38
61292;BME280;47165;42.664;23.368;2023-02-08T11:41:48;96858.72;;;0.27;46.07
61292;BME280;47165;42.664;23.368;2023-02-08T11:44:29;96859.66;;;0.36;45.39
61292;BME280;47165;42.664;23.368;2023-02-08T11:47:01;96860.69;;;0.48;45.76
61292;BME280;47165;42.664;23.368;2023-02-08T11:49:35;96859.81;;;0.49;45.19
61292;BME280;47165;42.664;23.368;2023-02-08T11:52:01;96855.47;;;0.42;45.33
61292;BME280;47165;42.664;23.368;2023-02-08T11:54:38;96864.66;;;0.23;45.25
61292;BME280;47165;42.664;23.368;2023-02-08T11:57:19;96862.50;;;0.56;46.07
61292;BME280;47165;42.664;23.368;2023-02-08T11:59:46;96857.16;;;0.39;45.38
61292;BME280;47165;42.664;23.368;2023-02-08T12:02:38;96872.91;;;0.69;44.57
61292;BME280;47165;42.664;23.368;2023-02-08T12:05:11;96870.03;;;0.41;44.96
61292;BME280;47165;42.664;23.368;2023-02-08T12:16:01;96864.59;;;0.90;45.85
61292;BME280;47165;42.664;23.368;2023-02-08T12:19:01;96862.22;;;1.10;44.69
61292;BME280;47165;42.664;23.368;2023-02-08T12:21:35;96858.34;;;0.69;44.70
61292;BME280;47165;42.664;23.368;2023-02-08T12:49:27;96865.16;;;1.48;42.18
61292;BME280;47165;42.664;23.368;2023-02-08T12:54:35;96853.91;;;1.35;40.73
61292;BME280;47165;42.664;23.368;2023-02-08T12:57:02;96855.19;;;0.93;42.66
61292;BME280;47165;42.664;23.368;2023-02-08T12:59:43;96856.19;;;1.06;42.44
61292;BME280;47165;42.664;23.368;2023-02-08T13:02:22;96860.84;;;0.62;41.91
61292;BME280;47165;42.664;23.368;2023-02-08T13:04:52;96873.00;;;0.75;42.02
61292;BME280;47165;42.664;23.368;2023-02-08T13:07:22;96873.94;;;0.80;42.22
61292;BME280;47165;42.664;23.368;2023-02-08T13:10:17;96867.91;;;0.78;41.39
61292;BME280;47165;42.664;23.368;2023-02-08T13:12:52;96882.50;;;0.80;40.83
61292;BME280;47165;42.664;23.368;2023-02-08T13:15:36;96878.91;;;0.66;40.74
61292;BME280;47165;42.664;23.368;2023-02-08T13:18:19;96879.03;;;0.77;40.64
61292;BME280;47165;42.664;23.368;2023-02-08T13:20:49;96879.81;;;0.73;40.52
61292;BME280;47165;42.664;23.368;2023-02-08T13:23:18;96878.78;;;0.55;40.92
61292;BME280;47165;42.664;23.368;2023-02-08T13:25:45;96887.38;;;0.57;41.62
61292;BME280;47165;42.664;23.368;2023-02-08T13:28:18;96885.84;;;0.75;41.12
61292;BME280;47165;42.664;23.368;2023-02-08T13:30:51;96883.34;;;0.81;41.98
61292;BME280;47165;42.664;23.368;2023-02-08T13:33:32;96884.22;;;0.83;41.55
61292;BME280;47165;42.664;23.368;2023-02-08T13:35:59;96891.19;;;0.92;41.25
61292;BME280;47165;42.664;23.368;2023-02-08T13:38:30;96890.53;;;1.11;40.64
61292;BME280;47165;42.664;23.368;2023-02-08T13:41:07;96892.88;;;0.90;41.42
61292;BME280;47165;42.664;23.368;2023-02-08T13:43:42;96895.13;;;0.62;41.43
61292;BME280;47165;42.664;23.368;2023-02-08T13:46:10;96905.03;;;0.33;41.85
61292;BME280;47165;42.664;23.368;2023-02-08T13:48:53;96896.06;;;0.05;43.22
61292;BME280;47165;42.664;23.368;2023-02-08T13:51:50;96904.88;;;0.21;43.22
61292;BME280;47165;42.664;23.368;2023-02-08T13:54:16;96907.19;;;0.05;43.52
61292;BME280;47165;42.664;23.368;2023-02-08T13:56:42;96915.56;;;-0.08;43.18
61292;BME280;47165;42.664;23.368;2023-02-08T14:04:42;96910.94;;;-0.31;44.50
61292;BME280;47165;42.664;23.368;2023-02-08T14:12:30;96915.19;;;-0.31;43.61
61292;BME280;47165;42.664;23.368;2023-02-08T14:17:41;96920.28;;;-0.83;45.23
61292;BME280;47165;42.664;23.368;2023-02-08T14:20:19;96908.63;;;-0.66;46.08
61292;BME280;47165;42.664;23.368;2023-02-08T14:22:51;96928.72;;;-0.40;46.59
61292;BME280;47165;42.664;23.368;2023-02-08T14:25:21;96923.88;;;-0.73;45.92
61292;BME280;47165;42.664;23.368;2023-02-08T14:27:52;96936.09;;;-0.58;46.37
61292;BME280;47165;42.664;23.368;2023-02-08T14:30:20;96926.22;;;-0.37;46.27
61292;BME280;47165;42.664;23.368;2023-02-08T14:32:53;96927.22;;;-0.27;45.97
61292;BME280;47165;42.664;23.368;2023-02-08T14:35:34;96929.91;;;-0.21;46.24
61292;BME280;47165;42.664;23.368;2023-02-08T14:40:57;96928.56;;;0.03;45.52
61292;BME280;47165;42.664;23.368;2023-02-08T14:45:57;96927.84;;;0.11;45.54
61292;BME280;47165;42.664;23.368;2023-02-08T14:48:47;96932.69;;;-0.07;45.62
61292;BME280;47165;42.664;23.368;2023-02-08T14:51:26;96919.78;;;-0.12;45.17
61292;BME280;47165;42.664;23.368;2023-02-08T14:54:05;96925.88;;;-0.05;44.84
61292;BME280;47165;42.664;23.368;2023-02-08T14:57:01;96937.91;;;-0.01;45.10